Airport View

Enter AWOS ICAO identifier for current METAR.

ex. KFNL

KWVL 280156Z AUTO VRB06KT 10SM OVC006 19/18 A2997 RMK AO2 SLP173 T01940183

28 Sep 2020 02:20

Frequency: 118.375

Phone: 207-877-0519

Other Area AWOS: KOWK - KAUG - KBST - KIWI

TAF KAUG 272340Z 2800/2824 19005KT P6SM OVC006 FM280200 18004KT 2SM BR OVC002 FM281400 16007KT 4SM BR OVC004 FM281600 16009KT P6SM BKN015